Terminal Aerodrome Forecast
Issued by NWS

Home | Current Version | Previous Version | Text Only | Print | Product List | Glossary On
Versions: 1 2 3 4 5 6 7 8 9 10 11 12 13 14 15 16 17 18
000
FTUS46 KLOX 011120
TAFPRB
TAF
KPRB 011120Z 0112/0212 VRB03KT P6SM SKC
     FM012200 20015G22KT P6SM SKC
     FM020400 30012KT P6SM SKC
     FM021000 VRB03KT 5SM BR BKN005=

USA.gov is the U.S. government's official web portal to all federal, state and local government web resources and services.